createdAt,value
2023-04-15T00:00:11.127Z,99222.10
2023-04-15T00:02:45.821Z,99222.04
2023-04-15T00:05:17.075Z,99224.35
2023-04-15T00:07:48.017Z,99226.86
2023-04-15T00:10:19.107Z,99228.30
2023-04-15T00:12:49.864Z,99227.56
2023-04-15T00:15:20.854Z,99217.95
2023-04-15T00:17:53.045Z,99216.79
2023-04-15T00:20:23.913Z,99220.63
2023-04-15T00:22:54.729Z,99221.73
2023-04-15T00:25:25.376Z,99220.58
2023-04-15T00:27:56.147Z,99216.84
2023-04-15T00:30:27.604Z,99212.30
2023-04-15T00:32:58.530Z,99216.75
2023-04-15T00:35:29.457Z,99212.64
2023-04-15T00:38:00.309Z,99212.38
2023-04-15T00:40:31.684Z,99210.30
2023-04-15T00:43:02.785Z,99208.86
2023-04-15T00:45:33.480Z,99206.13
2023-04-15T00:48:04.778Z,99206.45
2023-04-15T00:50:36.064Z,99204.15
2023-04-15T00:53:07.048Z,99203.53
2023-04-15T00:55:38.720Z,99199.57
2023-04-15T00:58:09.341Z,99200.21
2023-04-15T01:00:40.975Z,99195.95
2023-04-15T01:03:11.851Z,99198.36
2023-04-15T01:05:42.962Z,99197.61
2023-04-15T01:08:13.873Z,99191.08
2023-04-15T01:10:45.609Z,99188.77
2023-04-15T01:13:16.737Z,99190.39
2023-04-15T01:15:47.848Z,99185.70
2023-04-15T01:18:19.266Z,99184.79
2023-04-15T01:20:50.016Z,99186.71
2023-04-15T01:23:22.079Z,99185.99
2023-04-15T01:25:54.853Z,99183.63
2023-04-15T01:28:25.937Z,99186.00
2023-04-15T01:31:10.175Z,99183.52
2023-04-15T01:33:40.148Z,99177.27
2023-04-15T01:36:11.812Z,99172.88
2023-04-15T01:38:42.641Z,99170.19
2023-04-15T01:41:14.663Z,99170.76
2023-04-15T01:43:45.748Z,99171.91
2023-04-15T01:46:16.530Z,99175.38
2023-04-15T01:48:47.281Z,99179.95
2023-04-15T01:51:18.134Z,99171.99
2023-04-15T01:53:48.761Z,99168.40
2023-04-15T01:56:19.883Z,99166.26
2023-04-15T01:58:51.029Z,99163.61
2023-04-15T02:01:22.333Z,99162.31
2023-04-15T02:03:53.314Z,99156.77
2023-04-15T02:06:24.647Z,99149.37
2023-04-15T02:08:55.358Z,99148.06
2023-04-15T02:11:26.136Z,99148.57
2023-04-15T02:13:57.027Z,99149.83
2023-04-15T02:16:29.525Z,99146.27
2023-04-15T02:19:00.924Z,99146.75
2023-04-15T02:21:31.992Z,99140.82
2023-04-15T02:24:04.282Z,99142.51
2023-04-15T02:26:34.983Z,99142.29
2023-04-15T02:29:06.943Z,99142.58
2023-04-15T02:31:40.622Z,99138.05
2023-04-15T02:34:11.657Z,99135.06
2023-04-15T02:36:42.456Z,99132.23
2023-04-15T02:39:14.923Z,99138.30
2023-04-15T02:41:47.678Z,99131.43
2023-04-15T02:44:20.378Z,99135.61
2023-04-15T02:46:52.739Z,99138.84
2023-04-15T02:49:25.614Z,99144.33
2023-04-15T02:51:56.378Z,99149.76
2023-04-15T02:54:28.839Z,99150.52
2023-04-15T02:56:59.506Z,99144.87
2023-04-15T02:59:30.825Z,99151.81
2023-04-15T03:02:01.926Z,99144.13
2023-04-15T03:04:32.716Z,99141.82
2023-04-15T03:07:03.341Z,99134.64
2023-04-15T03:09:35.026Z,99133.27
2023-04-15T03:12:06.415Z,99135.20
2023-04-15T03:14:37.210Z,99123.60
2023-04-15T03:17:08.096Z,99135.55
2023-04-15T03:19:38.766Z,99131.41
2023-04-15T03:22:09.545Z,99127.64
2023-04-15T03:24:40.284Z,99126.69
2023-04-15T03:27:11.032Z,99123.29
2023-04-15T03:29:41.773Z,99124.52
2023-04-15T03:32:12.881Z,99120.80
2023-04-15T03:34:43.758Z,99118.40
2023-04-15T03:37:14.488Z,99117.10
2023-04-15T03:39:45.124Z,99119.23
2023-04-15T03:42:15.801Z,99116.70
2023-04-15T03:44:46.493Z,99114.58
2023-04-15T03:47:17.318Z,99106.69
2023-04-15T03:49:48.028Z,99104.01
2023-04-15T03:52:18.830Z,99102.80
2023-04-15T03:54:49.585Z,99104.49
2023-04-15T03:57:20.598Z,99101.88
2023-04-15T03:59:51.272Z,99098.76
2023-04-15T04:02:23.227Z,99096.23
2023-04-15T04:04:54.454Z,99097.70
2023-04-15T04:07:26.218Z,99096.93
2023-04-15T04:09:58.085Z,99097.30
2023-04-15T04:12:28.997Z,99106.05
2023-04-15T04:14:59.702Z,99115.58
2023-04-15T04:17:30.604Z,99121.69
2023-04-15T04:20:01.218Z,99113.13
2023-04-15T04:22:31.866Z,99109.02
2023-04-15T04:25:02.700Z,99106.69
2023-04-15T04:27:33.375Z,99103.17
2023-04-15T04:30:04.940Z,99105.08
2023-04-15T04:32:35.676Z,99102.89
2023-04-15T04:35:07.323Z,99112.18
2023-04-15T04:37:38.004Z,99107.38
2023-04-15T04:40:10.934Z,99113.95
2023-04-15T04:42:41.677Z,99115.82
2023-04-15T04:45:13.398Z,99113.54
2023-04-15T04:47:44.112Z,99114.49
2023-04-15T04:50:15.092Z,99120.84
2023-04-15T04:52:45.772Z,99122.80
2023-04-15T04:55:16.763Z,99122.00
2023-04-15T04:57:48.009Z,99123.42
2023-04-15T05:00:19.450Z,99123.38
2023-04-15T05:02:50.174Z,99123.67
2023-04-15T05:05:21.562Z,99131.55
2023-04-15T05:07:52.238Z,99129.92
2023-04-15T05:10:22.969Z,99130.20
2023-04-15T05:12:53.713Z,99133.94
2023-04-15T05:15:24.619Z,99127.63
2023-04-15T05:17:55.280Z,99129.23
2023-04-15T05:20:26.103Z,99134.92
2023-04-15T05:22:56.755Z,99127.13
2023-04-15T05:25:27.701Z,99129.49
2023-04-15T05:27:58.354Z,99133.05
2023-04-15T05:30:29.084Z,99132.42
2023-04-15T05:32:59.908Z,99134.44
2023-04-15T05:35:30.685Z,99139.10
2023-04-15T05:38:01.363Z,99139.06
2023-04-15T05:40:32.976Z,99143.53
2023-04-15T05:43:03.784Z,99143.73
2023-04-15T05:45:34.444Z,99144.18
2023-04-15T05:48:05.293Z,99144.92
2023-04-15T05:50:35.894Z,99155.13
2023-04-15T05:53:06.490Z,99157.51
2023-04-15T05:55:37.259Z,99160.58
2023-04-15T05:58:08.021Z,99167.86
2023-04-15T06:00:38.734Z,99164.66
2023-04-15T06:03:09.459Z,99167.77
2023-04-15T06:05:40.679Z,99171.77
2023-04-15T06:08:11.566Z,99170.50
2023-04-15T06:10:42.249Z,99175.55
2023-04-15T06:13:13.286Z,99178.71
2023-04-15T06:15:44.273Z,99180.77
2023-04-15T06:18:14.857Z,99182.40
2023-04-15T06:20:45.464Z,99179.08
2023-04-15T06:23:16.099Z,99188.90
2023-04-15T06:25:46.992Z,99185.40
2023-04-15T06:28:17.721Z,99181.81
2023-04-15T06:30:48.588Z,99183.39
2023-04-15T06:33:19.309Z,99182.42
2023-04-15T06:35:51.012Z,99184.08
2023-04-15T06:38:21.632Z,99187.34
2023-04-15T06:40:52.944Z,99186.42
2023-04-15T06:43:24.385Z,99189.10
2023-04-15T06:45:55.108Z,99186.60
2023-04-15T06:48:25.886Z,99195.08
2023-04-15T06:50:58.305Z,99198.83
2023-04-15T06:53:29.310Z,99202.17
2023-04-15T06:56:00.181Z,99197.10
2023-04-15T06:58:31.098Z,99197.98
2023-04-15T07:01:01.886Z,99202.11
2023-04-15T07:03:33.113Z,99210.02
2023-04-15T07:06:06.644Z,99213.45
2023-04-15T07:08:37.817Z,99210.65
2023-04-15T07:11:08.790Z,99210.73
2023-04-15T07:13:39.722Z,99212.38
2023-04-15T07:16:10.584Z,99217.48
2023-04-15T07:18:41.348Z,99219.91
2023-04-15T07:21:12.682Z,99227.06
2023-04-15T07:23:43.406Z,99227.05
2023-04-15T07:26:14.146Z,99229.02
2023-04-15T07:28:46.414Z,99230.67
2023-04-15T07:31:17.958Z,99229.72
2023-04-15T07:33:48.727Z,99235.20
2023-04-15T07:36:19.698Z,99236.02
2023-04-15T07:38:50.552Z,99243.66
2023-04-15T07:41:21.811Z,99241.52
2023-04-15T07:43:52.544Z,99240.84
2023-04-15T07:46:24.763Z,99247.06
2023-04-15T07:48:55.544Z,99246.41
2023-04-15T07:51:26.274Z,99249.08
2023-04-15T07:53:57.172Z,99247.08
2023-04-15T07:56:27.965Z,99248.36
2023-04-15T07:58:58.763Z,99251.22
2023-04-15T08:01:29.487Z,99252.73
2023-04-15T08:04:00.484Z,99256.86
2023-04-15T08:06:31.552Z,99262.45
2023-04-15T08:09:03.609Z,99262.52
2023-04-15T08:11:34.599Z,99264.88
2023-04-15T08:14:05.242Z,99269.98
2023-04-15T08:16:37.134Z,99281.52
2023-04-15T08:19:07.946Z,99279.92
2023-04-15T08:21:39.487Z,99282.89
2023-04-15T08:24:11.540Z,99283.48
2023-04-15T08:26:42.230Z,99281.29
2023-04-15T08:29:12.899Z,99285.23
2023-04-15T08:31:43.701Z,99283.31
2023-04-15T08:34:15.702Z,99285.89
2023-04-15T08:36:46.524Z,99285.88
2023-04-15T08:39:17.322Z,99282.02
2023-04-15T08:41:52.762Z,99282.91
2023-04-15T08:44:24.881Z,99281.06
2023-04-15T08:46:57.138Z,99281.70
2023-04-15T08:49:30.086Z,99286.41
2023-04-15T08:52:01.820Z,99291.73
2023-04-15T08:54:33.465Z,99293.64
2023-04-15T08:57:04.824Z,99299.04
2023-04-15T08:59:35.896Z,99299.31
2023-04-15T09:02:07.214Z,99305.36
2023-04-15T09:04:37.937Z,99306.58
2023-04-15T09:07:08.589Z,99309.85
2023-04-15T09:09:40.403Z,99312.77
2023-04-15T09:12:13.526Z,99318.96
2023-04-15T09:14:47.300Z,99322.82
2023-04-15T09:17:22.327Z,99326.73
2023-04-15T09:20:08.732Z,99328.02
2023-04-15T09:22:39.839Z,99329.75
2023-04-15T09:25:28.837Z,99332.26
2023-04-15T09:28:01.995Z,99328.48
2023-04-15T09:30:32.810Z,99337.88
2023-04-15T09:33:08.949Z,99335.03
2023-04-15T09:35:39.989Z,99337.66
2023-04-15T09:38:11.532Z,99342.30
2023-04-15T09:40:43.230Z,99347.09
2023-04-15T09:43:13.887Z,99357.48
2023-04-15T09:45:50.877Z,99362.73
2023-04-15T09:48:25.421Z,99364.28
2023-04-15T09:51:01.954Z,99370.16
2023-04-15T09:53:36.582Z,99371.27
2023-04-15T09:56:09.171Z,99365.72
2023-04-15T09:58:41.647Z,99370.34
2023-04-15T10:01:12.392Z,99368.58
2023-04-15T10:03:43.950Z,99367.80
2023-04-15T10:06:16.627Z,99373.98
2023-04-15T10:08:46.534Z,99373.61
2023-04-15T10:11:19.764Z,99379.98
2023-04-15T10:13:52.805Z,99380.53
2023-04-15T10:16:25.741Z,99385.08
2023-04-15T10:18:58.771Z,99390.73
2023-04-15T10:21:35.129Z,99389.64
2023-04-15T10:24:07.470Z,99390.58
2023-04-15T10:26:38.726Z,99396.39
2023-04-15T10:29:10.717Z,99395.73
2023-04-15T10:31:42.410Z,99407.33
2023-04-15T10:34:13.614Z,99403.04
2023-04-15T10:36:44.416Z,99394.86
2023-04-15T10:39:42.104Z,99397.44
2023-04-15T10:42:13.982Z,99399.69
2023-04-15T10:44:51.579Z,99406.59
2023-04-15T10:47:23.436Z,99402.42
2023-04-15T10:49:59.292Z,99409.30
2023-04-15T10:52:30.967Z,99408.80
2023-04-15T10:55:16.816Z,99404.41
2023-04-15T10:57:47.873Z,99405.50
2023-04-15T11:00:20.418Z,99407.08
2023-04-15T11:02:56.862Z,99408.83
2023-04-15T11:05:52.218Z,99412.77
2023-04-15T11:08:43.352Z,99408.29
2023-04-15T11:11:13.963Z,99418.05
2023-04-15T11:13:52.975Z,99423.31
2023-04-15T11:16:23.921Z,99422.70
2023-04-15T11:18:58.144Z,99433.37
2023-04-15T11:21:29.195Z,99430.70
2023-04-15T11:24:00.757Z,99430.05
2023-04-15T11:26:32.875Z,99432.02
2023-04-15T11:29:03.911Z,99435.77
2023-04-15T11:31:34.698Z,99435.15
2023-04-15T11:34:05.793Z,99440.91
2023-04-15T11:36:36.793Z,99443.59
2023-04-15T11:39:09.928Z,99447.79
2023-04-15T11:41:43.299Z,99445.73
2023-04-15T11:44:21.054Z,99450.82
2023-04-15T11:46:51.784Z,99450.97
2023-04-15T11:49:34.002Z,99453.83
2023-04-15T11:52:11.656Z,99455.76
2023-04-15T11:54:42.425Z,99455.52
2023-04-15T11:57:13.187Z,99458.48
2023-04-15T11:59:46.935Z,99462.11
2023-04-15T12:02:19.531Z,99462.98
2023-04-15T12:04:50.964Z,99466.23
2023-04-15T12:07:21.778Z,99469.91
2023-04-15T12:09:58.913Z,99475.86
2023-04-15T12:12:31.619Z,99477.08
2023-04-15T12:15:02.575Z,99483.58
2023-04-15T12:17:51.659Z,99486.73
2023-04-15T12:20:27.945Z,99491.68
2023-04-15T12:23:08.336Z,99492.56
2023-04-15T12:25:39.337Z,99492.66
2023-04-15T12:28:15.294Z,99493.64
2023-04-15T12:30:53.596Z,99494.91
2023-04-15T12:33:24.522Z,99497.33
2023-04-15T12:35:55.288Z,99502.06
2023-04-15T12:38:26.098Z,99505.91
2023-04-15T12:40:57.025Z,99510.48
2023-04-15T12:43:28.278Z,99509.39
2023-04-15T12:45:59.104Z,99512.54
2023-04-15T12:48:29.826Z,99515.46
2023-04-15T12:51:00.727Z,99512.73
2023-04-15T12:53:31.618Z,99513.44
2023-04-15T12:56:02.557Z,99521.85
2023-04-15T12:58:33.646Z,99524.63
2023-04-15T13:01:04.326Z,99525.13
2023-04-15T13:03:35.281Z,99526.77
2023-04-15T13:06:07.141Z,99531.59
2023-04-15T13:08:42.568Z,99537.48
2023-04-15T13:11:16.034Z,99539.00
2023-04-15T13:13:46.797Z,99539.48
2023-04-15T13:16:17.442Z,99543.55
2023-04-15T13:18:48.208Z,99542.16
2023-04-15T13:21:19.442Z,99542.65
2023-04-15T13:23:51.824Z,99548.16
2023-04-15T13:26:22.933Z,99552.29
2023-04-15T13:28:53.551Z,99555.27
2023-04-15T13:31:24.233Z,99552.06
2023-04-15T13:33:55.200Z,99551.70
2023-04-15T13:36:26.426Z,99556.85
2023-04-15T13:38:57.849Z,99553.11
2023-04-15T13:41:28.737Z,99553.35
2023-04-15T13:43:59.561Z,99559.36
2023-04-15T13:46:30.196Z,99563.73
2023-04-15T13:49:00.884Z,99565.91
2023-04-15T13:51:31.935Z,99568.52
2023-04-15T13:54:03.026Z,99570.58
2023-04-15T13:56:33.872Z,99571.41
2023-04-15T13:59:06.663Z,99566.77
2023-04-15T14:01:37.517Z,99573.36
2023-04-15T14:04:09.100Z,99570.10
2023-04-15T14:06:40.484Z,99569.66
2023-04-15T14:09:11.225Z,99568.52
2023-04-15T14:11:41.945Z,99570.75
2023-04-15T14:14:13.525Z,99575.70
2023-04-15T14:16:45.478Z,99575.08
2023-04-15T14:19:16.176Z,99582.88
2023-04-15T14:21:47.075Z,99585.39
2023-04-15T14:24:17.769Z,99589.04
2023-04-15T14:26:48.519Z,99588.13
2023-04-15T14:29:19.185Z,99598.25
2023-04-15T14:32:04.147Z,99601.18
2023-04-15T14:34:40.919Z,99606.85
2023-04-15T14:37:11.720Z,99612.70
2023-04-15T14:39:42.543Z,99611.33
2023-04-15T14:42:13.174Z,99613.00
2023-04-15T14:44:44.918Z,99614.42
2023-04-15T14:47:16.275Z,99615.35
2023-04-15T14:49:46.922Z,99619.02
2023-04-15T14:52:17.747Z,99620.88
2023-04-15T14:54:48.528Z,99624.36
2023-04-15T14:57:19.212Z,99623.77
2023-04-15T14:59:50.034Z,99627.90
2023-04-15T15:02:37.302Z,99628.99
2023-04-15T15:05:11.480Z,99637.41
2023-04-15T15:07:42.768Z,99638.46
2023-04-15T15:10:13.460Z,99639.41
2023-04-15T15:12:44.270Z,99643.30
2023-04-15T15:15:28.049Z,99643.19
2023-04-15T15:17:59.982Z,99649.20
2023-04-15T15:20:31.724Z,99653.92
2023-04-15T15:23:02.602Z,99653.16
2023-04-15T15:25:33.347Z,99656.91
2023-04-15T15:28:04.103Z,99659.44
2023-04-15T15:30:34.910Z,99660.92
2023-04-15T15:33:05.613Z,99657.05
2023-04-15T15:35:36.470Z,99667.29
2023-04-15T15:38:07.110Z,99673.25
2023-04-15T15:40:37.927Z,99674.69
2023-04-15T15:43:08.639Z,99680.20
2023-04-15T15:45:39.396Z,99683.30
2023-04-15T15:48:10.572Z,99683.09
2023-04-15T15:50:41.262Z,99689.55
2023-04-15T15:53:12.475Z,99690.23
2023-04-15T15:55:43.171Z,99695.27
2023-04-15T15:58:13.894Z,99692.73
2023-04-15T16:00:44.691Z,99696.84
2023-04-15T16:03:16.195Z,99697.27
2023-04-15T16:05:47.907Z,99699.43
2023-04-15T16:08:20.046Z,99701.27
2023-04-15T16:10:51.014Z,99701.62
2023-04-15T16:13:22.096Z,99703.48
2023-04-15T16:15:52.773Z,99706.73
2023-04-15T16:18:23.560Z,99709.79
2023-04-15T16:20:54.284Z,99711.20
2023-04-15T16:23:24.935Z,99713.83
2023-04-15T16:25:55.933Z,99719.34
2023-04-15T16:28:27.409Z,99723.46
2023-04-15T16:30:58.302Z,99723.13
2023-04-15T16:33:29.501Z,99727.98
2023-04-15T16:36:00.169Z,99729.58
2023-04-15T16:38:30.768Z,99730.63
2023-04-15T16:41:02.662Z,99731.30
2023-04-15T16:43:33.498Z,99731.70
2023-04-15T16:46:04.418Z,99735.23
2023-04-15T16:48:35.481Z,99740.07
2023-04-15T16:51:06.683Z,99736.50
2023-04-15T16:53:37.412Z,99742.63
2023-04-15T16:56:08.958Z,99752.36
2023-04-15T16:58:39.725Z,99750.73
2023-04-15T17:01:10.821Z,99752.64
2023-04-15T17:03:41.706Z,99751.87
2023-04-15T17:06:12.523Z,99753.98
2023-04-15T17:08:43.244Z,99759.65
2023-04-15T17:11:15.164Z,99760.73
2023-04-15T17:13:46.250Z,99761.50
2023-04-15T17:16:17.089Z,99768.13
2023-04-15T17:18:50.263Z,99767.08
2023-04-15T17:21:21.497Z,99768.90
2023-04-15T17:23:53.104Z,99772.43
2023-04-15T17:26:23.876Z,99774.84
2023-04-15T17:28:54.803Z,99780.92
2023-04-15T17:31:25.912Z,99782.87
2023-04-15T17:34:05.350Z,99791.13
2023-04-15T17:36:40.703Z,99790.29
2023-04-15T17:39:11.684Z,99795.04
2023-04-15T17:41:42.399Z,99797.43
2023-04-15T17:44:13.180Z,99802.52
2023-04-15T17:46:44.132Z,99805.96
2023-04-15T17:49:15.043Z,99811.71
2023-04-15T17:51:46.673Z,99816.73
2023-04-15T17:54:17.359Z,99819.82
2023-04-15T17:56:49.129Z,99825.93
2023-04-15T17:59:19.892Z,99828.70
2023-04-15T18:01:50.713Z,99829.13
2023-04-15T18:04:22.085Z,99830.95
2023-04-15T18:06:55.704Z,99833.58
2023-04-15T18:09:26.429Z,99835.79
2023-04-15T18:11:57.960Z,99840.56
2023-04-15T18:14:34.848Z,99847.70
2023-04-15T18:17:05.919Z,99853.20
2023-04-15T18:19:36.677Z,99855.83
2023-04-15T18:22:07.263Z,99857.02
2023-04-15T18:24:38.016Z,99860.33
2023-04-15T18:27:08.726Z,99863.23
2023-04-15T18:29:39.479Z,99870.73
2023-04-15T18:32:10.968Z,99874.36
2023-04-15T18:34:42.938Z,99874.96
2023-04-15T18:37:13.607Z,99880.51
2023-04-15T18:39:44.560Z,99884.02
2023-04-15T18:42:15.223Z,99888.39
2023-04-15T18:44:46.125Z,99894.80
2023-04-15T18:47:16.903Z,99891.23
2023-04-15T18:49:47.548Z,99893.67
2023-04-15T18:52:18.327Z,99894.15
2023-04-15T18:54:49.045Z,99899.62
2023-04-15T18:57:23.089Z,99900.70
2023-04-15T19:00:03.569Z,99900.83
2023-04-15T19:02:34.480Z,99896.80
2023-04-15T19:05:05.672Z,99903.05
2023-04-15T19:07:36.417Z,99904.15
2023-04-15T19:10:08.664Z,99910.51
2023-04-15T19:12:40.199Z,99913.67
2023-04-15T19:15:13.299Z,99919.34
2023-04-15T19:17:44.145Z,99925.89
2023-04-15T19:20:15.108Z,99932.21
2023-04-15T19:22:45.831Z,99939.10
2023-04-15T19:25:16.509Z,99939.44
2023-04-15T19:27:47.119Z,99940.63
2023-04-15T19:30:17.806Z,99940.71
2023-04-15T19:32:48.587Z,99944.27
2023-04-15T19:35:19.873Z,99944.30
2023-04-15T19:37:51.163Z,99944.81
2023-04-15T19:40:22.059Z,99950.13
2023-04-15T19:42:52.769Z,99950.27
2023-04-15T19:45:23.539Z,99952.92
2023-04-15T19:47:54.213Z,99956.74
2023-04-15T19:50:27.615Z,99959.41
2023-04-15T19:52:58.360Z,99960.23
2023-04-15T19:55:29.131Z,99960.20
2023-04-15T19:58:00.127Z,99964.41
2023-04-15T20:00:31.625Z,99965.65
2023-04-15T20:03:02.772Z,99962.09
2023-04-15T20:05:33.542Z,99967.44
2023-04-15T20:08:04.559Z,99973.97
2023-04-15T20:10:35.628Z,99976.08
2023-04-15T20:13:06.531Z,99980.23
2023-04-15T20:15:37.235Z,99982.22
2023-04-15T20:18:07.901Z,99987.17
2023-04-15T20:20:40.164Z,99990.91
2023-04-15T20:23:10.904Z,99995.20
2023-04-15T20:25:42.719Z,99996.48
2023-04-15T20:28:13.779Z,100003.01
2023-04-15T20:30:44.628Z,100002.09
2023-04-15T20:33:15.428Z,100008.63
2023-04-15T20:35:46.332Z,100008.11
2023-04-15T20:38:16.978Z,100014.64
2023-04-15T20:40:47.921Z,100016.39
2023-04-15T20:43:18.622Z,100018.98
2023-04-15T20:45:50.748Z,100020.10
2023-04-15T20:48:22.042Z,100019.33
2023-04-15T20:50:52.879Z,100020.55
2023-04-15T20:53:23.520Z,100024.30
2023-04-15T20:55:54.188Z,100024.93
2023-04-15T20:58:26.369Z,100026.52
2023-04-15T21:00:58.812Z,100025.95
2023-04-15T21:03:29.570Z,100027.10
2023-04-15T21:06:00.488Z,100029.65
2023-04-15T21:08:31.681Z,100026.13
2023-04-15T21:11:02.348Z,100032.88
2023-04-15T21:13:33.144Z,100035.56
2023-04-15T21:16:03.940Z,100038.35
2023-04-15T21:18:34.652Z,100047.65
2023-04-15T21:21:06.038Z,100046.88
2023-04-15T21:23:36.706Z,100051.69
2023-04-15T21:26:07.510Z,100055.76
2023-04-15T21:28:39.361Z,100059.67
2023-04-15T21:31:10.096Z,100066.20
2023-04-15T21:33:40.871Z,100064.06
2023-04-15T21:36:11.612Z,100067.55
2023-04-15T21:38:42.217Z,100070.35
2023-04-15T21:41:12.996Z,100071.74
2023-04-15T21:43:43.675Z,100072.80
2023-04-15T21:46:23.006Z,100076.69
2023-04-15T21:48:56.045Z,100076.64
2023-04-15T21:51:27.697Z,100077.30
2023-04-15T21:53:58.373Z,100076.64
2023-04-15T21:56:29.183Z,100079.01
2023-04-15T21:59:00.191Z,100078.48
2023-04-15T22:01:30.924Z,100082.81
2023-04-15T22:04:01.917Z,100087.85
2023-04-15T22:06:32.955Z,100095.64
2023-04-15T22:09:03.567Z,100095.76
2023-04-15T22:11:34.345Z,100099.73
2023-04-15T22:14:05.357Z,100100.42
2023-04-15T22:16:35.978Z,100100.98
2023-04-15T22:19:06.989Z,100102.79
2023-04-15T22:21:38.121Z,100102.52
2023-04-15T22:24:38.574Z,100101.48
2023-04-15T22:26:59.784Z,100107.13
2023-04-15T22:29:30.950Z,100111.14
2023-04-15T22:32:01.598Z,100112.83
2023-04-15T22:34:32.171Z,100116.58
2023-04-15T22:37:02.808Z,100115.84
2023-04-15T22:39:33.460Z,100119.32
2023-04-15T22:42:04.210Z,100126.02
2023-04-15T22:44:34.967Z,100129.40
2023-04-15T22:47:05.871Z,100127.21
2023-04-15T22:49:36.528Z,100129.55
2023-04-15T22:52:12.259Z,100133.99
2023-04-15T22:54:48.137Z,100135.23
2023-04-15T22:57:18.853Z,100136.59
2023-04-15T22:59:49.797Z,100134.52
2023-04-15T23:02:21.151Z,100138.81
2023-04-15T23:04:51.961Z,100127.85
2023-04-15T23:07:22.791Z,100140.35
2023-04-15T23:09:53.536Z,100145.73
2023-04-15T23:12:24.304Z,100147.02
2023-04-15T23:14:55.066Z,100149.96
2023-04-15T23:17:26.760Z,100154.56
2023-04-15T23:19:57.640Z,100153.32
2023-04-15T23:22:28.326Z,100151.96
2023-04-15T23:24:58.958Z,100153.95
2023-04-15T23:27:29.507Z,100152.14
2023-04-15T23:30:00.134Z,100157.30
2023-04-15T23:32:30.906Z,100152.23
2023-04-15T23:35:01.824Z,100155.21
2023-04-15T23:37:32.922Z,100157.96
2023-04-15T23:40:03.718Z,100161.86
2023-04-15T23:42:34.406Z,100162.64
2023-04-15T23:45:05.555Z,100161.70
2023-04-15T23:47:36.169Z,100162.47
2023-04-15T23:50:08.091Z,100165.68
2023-04-15T23:52:38.960Z,100165.73
2023-04-15T23:55:11.451Z,100167.45
2023-04-15T23:57:42.781Z,100169.73
